Thunder radar more information blitzortung!


Radar de pluja more information rain snow radar


Visita la nostra xarxa de llocs de meteo:

Template documentation
and downloads

And another site



No particular awareness of the weather is required.    There are no Weather-warnings

Pagina Historial Weather Underground text

Diari Resum Abril 26, 2016 Unitats:  Mètric    Imperial   Tant
« Previous Dia
SegĂźent Dia »
Diari Setmana Mensual Anual Personalitzada
  Maxima: Minima: Media:
Temperatura: -17.8 °C -14.3 °C -9.1 °C
Punt de rosada: -17.8 °C -16.4 °C -14.2 °C
Humitat: Humidity % 36 % 56 %
Wind Speed: 0 km/h 0 km/h 12.6 km/h
RĂ fegues de vent: 0 km/h - -
Vent:- - SE
Pression baro: 0 hPa 34222.3 hPa -
Precipitacions: 0 mm    
Historical Graphs
 
 
Dades de taula per Abril 26, 2016
Temps Temperatura Punt de rosada Pression baro Vent Wind Speed RĂ fegues de vent Humitat Rainfall Rate (Hourly)
-17.8 °C -17.8 °C 0 hPa Calm     Humidity % 0 mm
00:00 -13.8 °C -16.2 °C 34327.3 hPa Calm   2.6 km/h 74 % 0 mm
00:02 -11.8 °C -15.3 °C 34395 hPa WSW 9 km/h 9 km/h 65 % 0 mm
00:10 -13.8 °C -16.2 °C 34327.3 hPa SSW 2.6 km/h 2.6 km/h 74 % 0 mm
00:20 -13.8 °C -16.2 °C 34327.3 hPa SSW 2.6 km/h 2.6 km/h 74 % 0 mm
00:30 -13.8 °C -16.2 °C 34327.3 hPa Calm     75 % 0 mm
00:40 -13.8 °C -16 °C 34327.3 hPa Calm     76 % 0 mm
00:50 -13.9 °C -16.3 °C 34327.3 hPa SE 2.6 km/h 5.1 km/h 74 % 0 mm
01:00 -14.1 °C -16.4 °C 34327.3 hPa Calm   5.1 km/h 75 % 0 mm
01:10 -14.1 °C -16.4 °C 34327.3 hPa ENE 2.6 km/h 2.6 km/h 75 % 0 mm
01:20 -14.2 °C -16.3 °C 34327.3 hPa Calm     76 % 0 mm
01:30 -14.2 °C -16.3 °C 34327.3 hPa Calm     76 % 0 mm
01:40 -14.2 °C -16.2 °C 34327.3 hPa Calm     77 % 0 mm
01:50 -14.2 °C -16.3 °C 34327.3 hPa Calm     77 % 0 mm
02:00 -14.3 °C -16.3 °C 34327.3 hPa Calm     77 % 0 mm
02:10 -14.2 °C -16.2 °C 34327.3 hPa ENE 2.6 km/h 2.6 km/h 78 % 0 mm
02:20 -14.1 °C -16.1 °C 34327.3 hPa NE 2.6 km/h 5.1 km/h 78 % 0 mm
02:30 -13.9 °C -15.9 °C 34361.1 hPa Calm   5.1 km/h 78 % 0 mm
02:40 -13.9 °C -16 °C 34361.1 hPa Calm   2.6 km/h 77 % 0 mm
03:00 -13.7 °C -15.9 °C 34361.1 hPa Calm   5.1 km/h 76 % 0 mm
03:10 -13.4 °C -15.7 °C 34361.1 hPa NE 2.6 km/h 2.6 km/h 75 % 0 mm
03:20 -13.6 °C -15.9 °C 34361.1 hPa WSW 2.6 km/h 5.1 km/h 75 % 0 mm
03:30 -13.5 °C -15.8 °C 34327.3 hPa SW 2.6 km/h 5.1 km/h 75 % 0 mm
03:40 -13.1 °C -15.4 °C 34327.3 hPa SSW 2.6 km/h 7.7 km/h 75 % 0 mm
03:50 -13.1 °C -15.5 °C 34327.3 hPa SSW 5.1 km/h 5.1 km/h 74 % 0 mm
04:00 -12.4 °C -14.8 °C 34327.3 hPa SSW 2.6 km/h 5.1 km/h 74 % 0 mm
04:10 -12 °C -14.8 °C 34327.3 hPa NE 2.6 km/h 5.1 km/h 71 % 0 mm
04:20 -11.7 °C -14.8 °C 34327.3 hPa NE 7.7 km/h 10.3 km/h 69 % 0 mm
04:30 -11.4 °C -14.6 °C 34327.3 hPa ENE 5.1 km/h 5.1 km/h 68 % 0 mm
04:40 -11.2 °C -14.5 °C 34327.3 hPa ENE 5.1 km/h 10.3 km/h 67 % 0 mm
04:50 -10.9 °C -14.5 °C 34327.3 hPa ENE 5.1 km/h 10.3 km/h 65 % 0 mm
05:10 -10.7 °C -14.4 °C 34327.3 hPa SSW 2.6 km/h 7.7 km/h 64 % 0 mm
05:20 -10.1 °C -13.9 °C 34361.1 hPa SSE 5.1 km/h 10.3 km/h 63 % 0 mm
05:30 -10.1 °C -14.2 °C 34327.3 hPa ESE 2.6 km/h 10.3 km/h 61 % 0 mm
05:40 -10 °C -14.3 °C 34327.3 hPa East 5.1 km/h 10.3 km/h 60 % 0 mm
10:43 -9.8 °C -14.2 °C 34327.3 hPa East 6 km/h 6 km/h 59 % 0 mm
10:48 -9.7 °C -14.1 °C 34327.3 hPa WNW 6 km/h 6 km/h 59 % 0 mm
10:53 -9.4 °C -14.1 °C 34327.3 hPa SE 9 km/h 9 km/h 57 % 0 mm
10:58 -9.3 °C -13.8 °C 34327.3 hPa SW 9.8 km/h 9.8 km/h 58 % 0 mm
11:03 -9.3 °C -14.3 °C 34327.3 hPa ENE 9 km/h 9 km/h 55 % 0 mm
11:08 -9.3 °C -14.3 °C 34327.3 hPa SW 11.9 km/h 11.9 km/h 55 % 0 mm
11:13 -9.3 °C -14.6 °C 34293.4 hPa West 15.6 km/h 15.6 km/h 53 % 0 mm
11:18 -9.4 °C -14.7 °C 34293.4 hPa SW 9 km/h 9 km/h 53 % 0 mm
11:23 -9.1 °C -14.5 °C 34293.4 hPa East 9 km/h 9 km/h 52 % 0 mm
11:28 -8.8 °C -14.3 °C 34293.4 hPa SSW 20.9 km/h 20.9 km/h 52 % 0 mm
11:33 -8.9 °C -14.4 °C 34293.4 hPa East 9 km/h 9 km/h 52 % 0 mm
11:38 -8.8 °C -14.4 °C 34293.4 hPa South 15.6 km/h 15.6 km/h 51 % 0 mm
11:43 -8.7 °C -14.4 °C 34293.4 hPa ENE 11.9 km/h 11.9 km/h 51 % 0 mm
11:48 -8.5 °C -14.2 °C 34293.4 hPa SSE 15 km/h 15 km/h 51 % 0 mm
11:53 -8.6 °C -14.3 °C 34293.4 hPa ENE 15 km/h 15 km/h 51 % 0 mm
11:58 -8.7 °C -14.6 °C 34327.3 hPa ENE 11.9 km/h 11.9 km/h 50 % 0 mm
12:08 -8.4 °C -14.1 °C 34327.3 hPa SW 12.2 km/h 12.2 km/h 51 % 0 mm
12:13 -8.4 °C -14.6 °C 34327.3 hPa South 11.1 km/h 11.1 km/h 48 % 0 mm
12:18 -8 °C -14.2 °C 34327.3 hPa NNE 15 km/h 15 km/h 48 % 0 mm
12:28 -7.7 °C -13.9 °C 34327.3 hPa SW 11.1 km/h 11.1 km/h 48 % 0 mm
12:33 -7.6 °C -14.1 °C 34327.3 hPa SSE 9 km/h 9 km/h 46 % 0 mm
12:38 -7.3 °C -14.2 °C 34327.3 hPa SW 17.9 km/h 17.9 km/h 44 % 0 mm
12:43 -7.4 °C -14.2 °C 34293.4 hPa West 11.9 km/h 11.9 km/h 45 % 0 mm
12:48 -7.1 °C -14.1 °C 34293.4 hPa SW 11.9 km/h 11.9 km/h 44 % 0 mm
12:53 -6.8 °C -14 °C 34293.4 hPa South 9 km/h 9 km/h 43 % 0 mm
12:58 -7.2 °C -14.5 °C 34293.4 hPa WNW 11.9 km/h 11.9 km/h 42 % 0 mm
13:03 -6.9 °C -14.3 °C 34293.4 hPa NE 14 km/h 14 km/h 42 % 0 mm
13:08 -6.8 °C -14.3 °C 34293.4 hPa SW 15 km/h 15 km/h 41 % 0 mm
13:13 -6.7 °C -14.4 °C 34256.2 hPa WSW 17.9 km/h 17.9 km/h 40 % 0 mm
13:18 -6.9 °C -14.8 °C 34256.2 hPa SW 20.9 km/h 20.9 km/h 39 % 0 mm
13:23 -6.6 °C -14.3 °C 34256.2 hPa SSW 6.3 km/h 6.3 km/h 40 % 0 mm
13:28 -6.4 °C -14.4 °C 34256.2 hPa South 6 km/h 6.3 km/h 39 % 0 mm
13:33 -6.2 °C -14.1 °C 34256.2 hPa SSW 9 km/h 9 km/h 40 % 0 mm
13:38 -6.4 °C -14.6 °C 34256.2 hPa SSW 9 km/h 9 km/h 38 % 0 mm
13:43 -6.2 °C -14.5 °C 34256.2 hPa WNW 15.3 km/h 15.3 km/h 38 % 0 mm
13:48 -6.4 °C -14.9 °C 34256.2 hPa NE 9 km/h 9 km/h 37 % 0 mm
13:53 -6.3 °C -14.7 °C 34256.2 hPa WSW 20.9 km/h 20.9 km/h 37 % 0 mm
13:58 -6.1 °C -14.6 °C 34256.2 hPa SW 11.9 km/h 11.9 km/h 37 % 0 mm
14:03 -6.1 °C -14.6 °C 34256.2 hPa East 12.7 km/h 12.7 km/h 37 % 0 mm
14:08 -5.9 °C -14.7 °C 34256.2 hPa WSW 15 km/h 15 km/h 36 % 0 mm
14:13 -6.2 °C -14.8 °C 34256.2 hPa WSW 6 km/h 6 km/h 36 % 0 mm
14:18 -6.1 °C -14.6 °C 34256.2 hPa SSE 15 km/h 15 km/h 37 % 0 mm
14:23 -6.1 °C -14.2 °C 34256.2 hPa South 15 km/h 15 km/h 39 % 0 mm
14:28 -6.4 °C -14.2 °C 34256.2 hPa ESE 15 km/h 15 km/h 40 % 0 mm
14:38 -6.6 °C -14.2 °C 34256.2 hPa ESE 29.8 km/h 29.8 km/h 41 % 0 mm
14:43 -6.7 °C -14.1 °C 34256.2 hPa ESE 16.6 km/h 16.6 km/h 42 % 0 mm
14:48 -7 °C -14.3 °C 34256.2 hPa ESE 25.4 km/h 25.4 km/h 42 % 0 mm
14:53 -6.8 °C -14.2 °C 34256.2 hPa ENE 23.8 km/h 23.8 km/h 42 % 0 mm
14:58 -6.8 °C -14.2 °C 34256.2 hPa ESE 29.8 km/h 29.8 km/h 42 % 0 mm
15:03 -6.9 °C -14.3 °C 34256.2 hPa ESE 15 km/h 15 km/h 42 % 0 mm
15:08 -6.7 °C -13.9 °C 34256.2 hPa ESE 34.9 km/h 34.9 km/h 43 % 0 mm
15:13 -7 °C -14.3 °C 34256.2 hPa East 17.9 km/h 17.9 km/h 42 % 0 mm
15:18 -6.9 °C -14.1 °C 34256.2 hPa East 26.9 km/h 26.9 km/h 43 % 0 mm
15:23 -6.9 °C -14.1 °C 34256.2 hPa ESE 29.8 km/h 29.8 km/h 43 % 0 mm
15:28 -7.1 °C -14.2 °C 34293.4 hPa East 26.4 km/h 26.4 km/h 43 % 0 mm
15:38 -7 °C -14.2 °C 34293.4 hPa NNE 29.8 km/h 29.8 km/h 43 % 0 mm
15:43 -7.2 °C -14.5 °C 34256.2 hPa ENE 29.8 km/h 29.8 km/h 42 % 0 mm
15:48 -7.1 °C -14.4 °C 34256.2 hPa ENE 20.9 km/h 20.9 km/h 42 % 0 mm
15:53 -6.7 °C -14.1 °C 34256.2 hPa ENE 10.3 km/h 10.3 km/h 42 % 0 mm
15:58 -6.6 °C -13.9 °C 34256.2 hPa ESE 15.6 km/h 15.6 km/h 42 % 0 mm
16:03 -6.6 °C -14.2 °C 34256.2 hPa NE 8 km/h 8 km/h 41 % 0 mm
16:08 -6.5 °C -13.9 °C 34256.2 hPa SW 11.9 km/h 11.9 km/h 42 % 0 mm
16:13 -6 °C -13.8 °C 34256.2 hPa ESE 16.6 km/h 16.6 km/h 40 % 0 mm
16:18 -6.1 °C -13.9 °C 34256.2 hPa SE 16.6 km/h 16.6 km/h 40 % 0 mm
16:23 -5.9 °C -14 °C 34256.2 hPa SSE 20.9 km/h 20.9 km/h 39 % 0 mm
16:28 -6 °C -14.1 °C 34222.3 hPa SSW 15 km/h 15 km/h 39 % 0 mm
16:33 -6 °C -14.1 °C 34222.3 hPa South 15 km/h 15 km/h 39 % 0 mm
16:38 -5.7 °C -13.6 °C 34222.3 hPa South 9 km/h 9 km/h 40 % 0 mm
16:43 -5.8 °C -13.7 °C 34256.2 hPa SW 17.9 km/h 17.9 km/h 40 % 0 mm
16:48 -5.8 °C -13.4 °C 34256.2 hPa WSW 22.5 km/h 22.5 km/h 41 % 0 mm
16:53 -5.9 °C -13.6 °C 34256.2 hPa SSW 23.8 km/h 23.8 km/h 41 % 0 mm
16:58 -6.2 °C -13.6 °C 34222.3 hPa SW 26.9 km/h 26.9 km/h 42 % 0 mm
17:03 -6.3 °C -13.5 °C 34222.3 hPa SW 15 km/h 15 km/h 43 % 0 mm
17:08 -6.2 °C -13.4 °C 34222.3 hPa SW 29.8 km/h 29.8 km/h 43 % 0 mm
17:13 -6.3 °C -13.5 °C 34256.2 hPa SW 15 km/h 15 km/h 43 % 0 mm
17:18 -6 °C -13.4 °C 34256.2 hPa SW 20.9 km/h 20.9 km/h 42 % 0 mm
17:23 -6.2 °C -13.4 °C 34256.2 hPa SSW 23.8 km/h 23.8 km/h 43 % 0 mm
17:28 -6.2 °C -13.4 °C 34222.3 hPa SSW 20.9 km/h 20.9 km/h 43 % 0 mm
17:33 -6.1 °C -13.6 °C 34222.3 hPa SW 20.9 km/h 20.9 km/h 42 % 0 mm
17:38 -6.3 °C -13.6 °C 34222.3 hPa SW 27.7 km/h 27.7 km/h 43 % 0 mm
17:43 -6.3 °C -13.4 °C 34222.3 hPa SSW 20.9 km/h 20.9 km/h 44 % 0 mm
17:48 -6.4 °C -13.5 °C 34222.3 hPa WSW 12.7 km/h 12.7 km/h 44 % 0 mm
17:53 -6.5 °C -13.4 °C 34222.3 hPa SW 23.8 km/h 23.8 km/h 45 % 0 mm
17:58 -6.4 °C -13.3 °C 34222.3 hPa SSW 23.8 km/h 23.8 km/h 45 % 0 mm
18:03 -6.5 °C -13.2 °C 34222.3 hPa SSW 17.9 km/h 17.9 km/h 46 % 0 mm
18:08 -6.7 °C -13.3 °C 34222.3 hPa SW 20.9 km/h 20.9 km/h 46 % 0 mm
18:13 -6.6 °C -13.3 °C 34222.3 hPa West 17.9 km/h 17.9 km/h 46 % 0 mm
18:18 -6.3 °C -13 °C 34222.3 hPa WSW 16.6 km/h 16.6 km/h 46 % 0 mm
18:23 -6.7 °C -13.3 °C 34222.3 hPa SSW 15 km/h 15 km/h 46 % 0 mm
18:28 -6.7 °C -13.5 °C 34222.3 hPa SSW 26.9 km/h 26.9 km/h 45 % 0 mm
18:33 -6.7 °C -13.6 °C 34222.3 hPa SSW 23.8 km/h 23.8 km/h 45 % 0 mm
18:38 -6.8 °C -13.7 °C 34222.3 hPa SW 20.3 km/h 20.3 km/h 45 % 0 mm
18:43 -6.8 °C -13.7 °C 34256.2 hPa WSW 20.9 km/h 20.9 km/h 45 % 0 mm
18:48 -6.8 °C -13.7 °C 34256.2 hPa SSE 11.9 km/h 11.9 km/h 45 % 0 mm
18:53 -6.7 °C -13.5 °C 34256.2 hPa SSW 11.1 km/h 11.1 km/h 45 % 0 mm
18:58 -6.7 °C -13.7 °C 34256.2 hPa SW 15 km/h 15 km/h 44 % 0 mm
19:03 -6.7 °C -13.7 °C 34256.2 hPa SW 19.2 km/h 19.2 km/h 44 % 0 mm
19:08 -7.1 °C -14.1 °C 34256.2 hPa WSW 11.9 km/h 11.9 km/h 44 % 0 mm
19:13 -7.2 °C -14.2 °C 34222.3 hPa WSW 15.3 km/h 15.3 km/h 44 % 0 mm
19:18 -7.3 °C -14.1 °C 34222.3 hPa SW 20.9 km/h 20.9 km/h 45 % 0 mm
19:20 -10.8 °C -13.7 °C 34327.3 hPa ENE 7.7 km/h 10.3 km/h 70 % 0 mm
19:24 -7.4 °C -14.2 °C 34222.3 hPa WSW 20.9 km/h 20.9 km/h 45 % 0 mm
19:29 -7.6 °C -14.3 °C 34222.3 hPa WSW 19.6 km/h 19.6 km/h 45 % 0 mm
19:30 -10.8 °C -13.7 °C 34327.3 hPa ENE 7.7 km/h 12.9 km/h 70 % 0 mm
19:34 -7.7 °C -14.5 °C 34222.3 hPa SW 20.9 km/h 20.9 km/h 45 % 0 mm
19:39 -7.8 °C -14.3 °C 34222.3 hPa SSE 17.9 km/h 17.9 km/h 46 % 0 mm
19:44 -7.8 °C -14.3 °C 34222.3 hPa WSW 11.9 km/h 11.9 km/h 46 % 0 mm
19:45 -10.8 °C -13.7 °C 34327.3 hPa ENE 12.9 km/h 15.6 km/h 71 % 0 mm
19:49 -7.8 °C -14.4 °C 34222.3 hPa South 6 km/h 6 km/h 46 % 0 mm
19:54 -7.9 °C -14.5 °C 34222.3 hPa SW 9 km/h 9 km/h 46 % 0 mm
19:55 -10.8 °C -13.7 °C 34327.3 hPa East 5.1 km/h 15.6 km/h 71 % 0 mm
19:59 -8 °C -14.3 °C 34222.3 hPa SW 11.9 km/h 11.9 km/h 47 % 0 mm
20:04 -8.1 °C -14.5 °C 34222.3 hPa SW 9 km/h 9 km/h 47 % 0 mm
20:05 -10.8 °C -13.6 °C 34327.3 hPa ENE 7.7 km/h 12.9 km/h 72 % 0 mm
20:09 -8.2 °C -14.5 °C 34222.3 hPa SW 9 km/h 9 km/h 47 % 0 mm
20:14 -8.2 °C -14.5 °C 34256.2 hPa SW 5.6 km/h 5.6 km/h 47 % 0 mm
20:15 -10.8 °C -13.6 °C 34327.3 hPa ENE 7.7 km/h 10.3 km/h 71 % 0 mm
20:19 -8.3 °C -14.6 °C 34256.2 hPa South 6 km/h 6 km/h 47 % 0 mm
20:24 -8.4 °C -14.6 °C 34256.2 hPa SW 6 km/h 7.6 km/h 48 % 0 mm
20:25 -10.8 °C -13.5 °C 34327.3 hPa ENE 12.9 km/h 15.6 km/h 72 % 0 mm
20:29 -8.5 °C -14.5 °C 34256.2 hPa SSE 23.8 km/h 23.8 km/h 49 % 0 mm
20:34 -8.6 °C -14.6 °C 34256.2 hPa SSW 11.9 km/h 11.9 km/h 49 % 0 mm
20:35 -10.8 °C -13.6 °C 34327.3 hPa East 15.6 km/h 15.6 km/h 72 % 0 mm
20:39 -8.7 °C -14.6 °C 34256.2 hPa ESE 11.9 km/h 11.9 km/h 50 % 0 mm
20:44 -8.8 °C -14.5 °C 34256.2 hPa SSE 6 km/h 6 km/h 51 % 0 mm
20:45 -10.8 °C -13.4 °C 34327.3 hPa ENE 7.7 km/h 12.9 km/h 73 % 0 mm
20:49 -8.9 °C -14.6 °C 34256.2 hPa ENE 20.9 km/h 20.9 km/h 51 % 0 mm
20:54 -9.1 °C -14.5 °C 34256.2 hPa ESE 12.7 km/h 12.7 km/h 52 % 0 mm
20:55 -10.8 °C -13.4 °C 34327.3 hPa ENE 7.7 km/h 15.6 km/h 73 % 0 mm
20:59 -9.2 °C -14.3 °C 34256.2 hPa ESE 17.9 km/h 17.9 km/h 54 % 0 mm
21:04 -9.3 °C -14 °C 34256.2 hPa ESE 15 km/h 15 km/h 57 % 0 mm
21:09 -9.4 °C -13.7 °C 34256.2 hPa ENE 17.9 km/h 17.9 km/h 60 % 0 mm
21:14 -9.5 °C -13.7 °C 34256.2 hPa ESE 23.8 km/h 23.8 km/h 61 % 0 mm
21:15 -10.8 °C -13.4 °C 34327.3 hPa ENE 2.6 km/h 15.6 km/h 73 % 0 mm
21:19 -9.6 °C -13.4 °C 34256.2 hPa ESE 17.9 km/h 17.9 km/h 63 % 0 mm
21:24 -9.6 °C -13.4 °C 34256.2 hPa ESE 15.3 km/h 15.3 km/h 64 % 0 mm
21:25 -10.8 °C -13.4 °C 34327.3 hPa ENE 7.7 km/h 12.9 km/h 73 % 0 mm
21:34 -9.7 °C -13.3 °C 34256.2 hPa ESE 15 km/h 15 km/h 65 % 0 mm
21:35 -10.8 °C -13.3 °C 34293.4 hPa ENE 7.7 km/h 10.3 km/h 74 % 0 mm
21:39 -9.7 °C -13.3 °C 34256.2 hPa East 10.3 km/h 10.3 km/h 65 % 0 mm
21:45 -10.8 °C -13.3 °C 34293.4 hPa ENE 5.1 km/h 15.6 km/h 74 % 0 mm
21:49 -9.9 °C -13.2 °C 34293.4 hPa East 12.7 km/h 12.7 km/h 67 % 0 mm
21:54 -10 °C -13.5 °C 34293.4 hPa ENE 17.9 km/h 17.9 km/h 66 % 0 mm
21:55 -10.8 °C -13.3 °C 34327.3 hPa ENE 5.1 km/h 15.6 km/h 74 % 0 mm
21:59 -10.1 °C -13.7 °C 34293.4 hPa East 10.3 km/h 10.3 km/h 65 % 0 mm
22:04 -10.2 °C -13.9 °C 34293.4 hPa ESE 17.4 km/h 17.4 km/h 64 % 0 mm
22:05 -10.8 °C -13.3 °C 34327.3 hPa NE 7.7 km/h 10.3 km/h 74 % 0 mm
22:09 -10.2 °C -13.9 °C 34293.4 hPa East 15.6 km/h 15.6 km/h 64 % 0 mm
22:14 -10.3 °C -14 °C 34256.2 hPa East 20.9 km/h 20.9 km/h 64 % 0 mm
22:15 -10.8 °C -13.3 °C 34327.3 hPa ENE 7.7 km/h 12.9 km/h 74 % 0 mm
22:19 -10.3 °C -14.1 °C 34256.2 hPa NNW 17.9 km/h 17.9 km/h 64 % 0 mm
22:24 -10.3 °C -14.1 °C 34256.2 hPa NE 17.9 km/h 17.9 km/h 64 % 0 mm
22:25 -10.8 °C -13.3 °C 34327.3 hPa East 7.7 km/h 15.6 km/h 74 % 0 mm
22:29 -10.4 °C -14.1 °C 34293.4 hPa East 9.3 km/h 9.3 km/h 64 % 0 mm
22:34 -10.4 °C -14.1 °C 34293.4 hPa East 11.9 km/h 11.9 km/h 64 % 0 mm
22:35 -10.9 °C -13.4 °C 34327.3 hPa ENE 7.7 km/h 10.3 km/h 74 % 0 mm
22:39 -10.4 °C -14.1 °C 34293.4 hPa ENE 14 km/h 14 km/h 64 % 0 mm
22:44 -10.4 °C -14 °C 34293.4 hPa ENE 20.9 km/h 20.9 km/h 65 % 0 mm
22:45 -10.9 °C -13.4 °C 34327.3 hPa NE 5.1 km/h 10.3 km/h 74 % 0 mm
22:49 -10.5 °C -14.1 °C 34293.4 hPa East 15 km/h 15 km/h 65 % 0 mm
22:54 -10.5 °C -14.1 °C 34293.4 hPa ENE 15.3 km/h 15.3 km/h 65 % 0 mm
22:55 -10.9 °C -13.4 °C 34293.4 hPa NE 7.7 km/h 7.7 km/h 74 % 0 mm
22:59 -10.5 °C -13.9 °C 34327.3 hPa SE 11.9 km/h 11.9 km/h 66 % 0 mm
23:04 -10.5 °C -13.9 °C 34327.3 hPa SE 11.9 km/h 11.9 km/h 66 % 0 mm
23:05 -10.9 °C -13.4 °C 34327.3 hPa ENE 5.1 km/h 10.3 km/h 74 % 0 mm
23:14 -10.6 °C -13.9 °C 34293.4 hPa NNE 15 km/h 15 km/h 67 % 0 mm
23:15 -10.9 °C -13.4 °C 34327.3 hPa NE 7.7 km/h 12.9 km/h 74 % 0 mm
23:19 -10.6 °C -13.9 °C 34293.4 hPa ENE 23.8 km/h 23.8 km/h 67 % 0 mm
23:24 -10.6 °C -13.9 °C 34293.4 hPa NNE 6.3 km/h 8.5 km/h 67 % 0 mm
23:25 -10.9 °C -13.4 °C 34293.4 hPa NE 7.7 km/h 10.3 km/h 74 % 0 mm
23:29 -10.6 °C -13.8 °C 34327.3 hPa NE 15 km/h 15 km/h 68 % 0 mm
23:34 -10.6 °C -13.8 °C 34327.3 hPa East 20.9 km/h 20.9 km/h 68 % 0 mm
23:35 -10.9 °C -13.4 °C 34293.4 hPa ENE 5.1 km/h 7.7 km/h 74 % 0 mm
23:39 -10.7 °C -13.8 °C 34327.3 hPa ENE 15.3 km/h 15.3 km/h 68 % 0 mm
23:44 -10.7 °C -13.8 °C 34327.3 hPa NE 6.8 km/h 7.6 km/h 69 % 0 mm
23:45 -10.9 °C -13.4 °C 34293.4 hPa ENE 7.7 km/h 10.3 km/h 74 % 0 mm
23:49 -10.7 °C -13.8 °C 34327.3 hPa ENE 12.7 km/h 12.7 km/h 69 % 0 mm
23:54 -10.7 °C -13.8 °C 34327.3 hPa East 11.9 km/h 11.9 km/h 69 % 0 mm
23:55 -11 °C -13.5 °C 34327.3 hPa NE 5.1 km/h 10.3 km/h 74 % 0 mm
23:59 -10.7 °C -13.8 °C 34327.3 hPa East 15 km/h 15 km/h 69 % 0 mm
Meteo Sesrovires
Elogis d' Weather Underground - 2 mb

Guio original per  Jim McMurry - jmcmurry@mwt.net Adaptat per a la plantilla per  Wim van der Kuil - Leuven-Template.eu

Trobareu la nostra informacio del temps tambe a:

Weather Underground

AWEKAS